Kezdőlap
METAR-TAF:

METAR-TAF

Repülőterek :

Havanna, Kuba

földrajzi szélesség: 22-59N, földrajzi hosszúság: 082-24W, magasság: 59 m

Jelenlegi meteorológiai megfigyelések

A jelentés 28 perccel ezelõtt készült, 05:55 UTC
Délnyugati szél 1 kt
Hőmérséklet 15°C
Páratartalom 94%
Légköri nyomás 1016 hPa
Látótávolság 10 km, vagy több
felhőtlen 1500 m magasságban, és nincs gomolyfelhõ

METAR: MUHA 240555Z 23001KT CAVOK 15/14 Q1016

Idő: 02:23 (06:23 UTC)

Előrejelzés

A jelentés 1 órával és 23 perccel ezelõtt készült, 05:00 UTC
Az előrejelzés 24-én 06 óra UTC és 25-én 06 óra UTC között érvényes
Keleti szél 3 kt
Látótávolság: 9000 m
Kevés felhő 3000 lábon
24-én 14 óra UTC és 24-én 16 óra UTC között fokozatosan kialakuló
Keleti szél 12 kt
25-én 04 óra UTC és 25-én 06 óra UTC között fokozatosan kialakuló
Keleti szél 3 kt

TAF: MUHA 240500Z 2406/2506 09003KT 9000 FEW030 BECMG 2414/2416 09012KT BECMG 2504/2506 09003KT

Meteorológiai megfigyelések és előrejelzések több, mint 4000 repülőtéren (METAR és TAF jelentéseket).

A térképen piros és sárga pontok jelzik az elérhető meteorológiai állomásokat.

Mozgassa az egeret a pont fölött, hogy megjelenjen az állomás neve.

Azután kattintson az időjárási megfigyelések és előrejelzések megtekintéséhez.

A térkép megváltoztatása: kattintson a fekete keresztel jelölt zöld gombra ráközelítéshez, a vonallal jelölt zöld gombra távolításhoz, vagy a zöld nyilakra a szomszédos térképek eléréséhez.


METAR-TAF: